Time;durP1;ratioP1;P1;durP2;ratioP2;P2;SDS_P1;SDS_P2;PMS_P1;PMS_P2;Temp;Humidity;BMP_temperature;BMP_pressure;BME280_temperature;BME280_humidity;BME280_pressure;Samples;Min_cycle;Max_cycle;Signal;HPM_P1;HPM_P2
2023/07/26 00:01:04;;;;;;;11.33;6.10;;;;;;;;;;5120465;27;20728;-64
2023/07/26 00:03:29;;;;;;;10.63;6.70;;;;;;;;;;5115286;27;20015;-63
2023/07/26 00:05:54;;;;;;;12.70;6.23;;;;;;;;;;5132007;27;20603;-64
2023/07/26 00:08:19;;;;;;;11.63;5.85;;;;;;;;;;5121512;27;20019;-62
2023/07/26 00:10:46;;;;;;;11.37;6.10;;;;;;;;;;5129298;27;20026;-62
2023/07/26 00:13:11;;;;;;;13.57;6.07;;;;;;;;;;5135969;27;20878;-64
2023/07/26 00:15:36;;;;;;;11.33;6.67;;;;;;;;;;5134684;27;20027;-63
2023/07/26 00:18:01;;;;;;;13.23;6.70;;;;;;;;;;5132710;27;20023;-64
2023/07/26 00:20:26;;;;;;;11.80;5.73;;;;;;;;;;5131023;27;20019;-65
2023/07/26 00:22:52;;;;;;;10.38;6.45;;;;;;;;;;5123003;27;20444;-61
2023/07/26 00:25:17;;;;;;;12.13;6.10;;;;;;;;;;5134763;27;20043;-62
2023/07/26 00:27:42;;;;;;;9.63;5.47;;;;;;;;;;5128080;27;20042;-61
2023/07/26 00:30:07;;;;;;;9.18;5.30;;;;;;;;;;5127110;27;20451;-63
2023/07/26 00:32:33;;;;;;;10.90;6.72;;;;;;;;;;5123645;27;20049;-64
2023/07/26 00:34:58;;;;;;;12.00;6.00;;;;;;;;;;5119429;27;20462;-63
2023/07/26 00:37:23;;;;;;;10.60;6.53;;;;;;;;;;5130804;27;20094;-63
2023/07/26 00:39:48;;;;;;;11.20;5.93;;;;;;;;;;5128819;27;20466;-63
2023/07/26 00:42:17;;;;;;;13.27;6.20;;;;;;;;;;5131676;27;20011;-63
2023/07/26 00:44:42;;;;;;;11.60;6.68;;;;;;;;;;5130914;27;20027;-63
2023/07/26 00:47:07;;;;;;;14.87;7.00;;;;;;;;;;5128300;27;20042;-63
2023/07/26 00:49:33;;;;;;;15.20;6.53;;;;;;;;;;5125263;27;20019;-63
2023/07/26 00:51:58;;;;;;;10.90;6.50;;;;;;;;;;5122781;27;20085;-62
2023/07/26 00:54:23;;;;;;;10.93;5.77;;;;;;;;;;5131198;27;20018;-62
2023/07/26 00:56:48;;;;;;;15.50;6.20;;;;;;;;;;5123150;27;20493;-61
2023/07/26 00:59:13;;;;;;;12.63;6.47;;;;;;;;;;5134624;27;20064;-62
2023/07/26 01:01:39;;;;;;;11.47;6.40;;;;;;;;;;5135747;27;20045;-64
2023/07/26 01:04:05;;;;;;;10.80;5.82;;;;;;;;;;5134948;27;20487;-63
2023/07/26 01:06:50;;;;;;;11.63;6.25;;;;;;;;;;5135924;27;20057;-63
2023/07/26 01:09:26;;;;;;;16.05;5.97;;;;;;;;;;5116719;27;20031;-63
2023/07/26 01:12:01;;;;;;;11.88;5.80;;;;;;;;;;5135026;27;20096;-63
2023/07/26 01:14:44;;;;;;;15.68;6.57;;;;;;;;;;5134957;27;20079;-63
2023/07/26 01:17:09;;;;;;;;;;;;;;;;;;5136073;27;20534;-63
2023/07/26 01:19:35;;;;;;;13.27;5.88;;;;;;;;;;5135036;27;19966;-63
2023/07/26 01:22:00;;;;;;;8.93;5.13;;;;;;;;;;5135191;27;20015;-63
2023/07/26 01:24:25;;;;;;;9.50;5.30;;;;;;;;;;5134934;27;20019;-63
2023/07/26 01:26:50;;;;;;;10.00;5.17;;;;;;;;;;5127948;27;20015;-63
2023/07/26 01:29:15;;;;;;;13.40;5.57;;;;;;;;;;5135089;27;20018;-63
2023/07/26 01:31:41;;;;;;;11.67;4.20;;;;;;;;;;5134521;27;20038;-63
2023/07/26 01:34:07;;;;;;;10.37;5.20;;;;;;;;;;5121333;27;20028;-64
2023/07/26 01:36:32;;;;;;;;;;;;;;;;;;5139047;27;20371;-63
2023/07/26 01:38:58;;;;;;;13.90;4.45;;;;;;;;;;5138145;27;20289;-63
2023/07/26 01:41:23;;;;;;;14.18;5.13;;;;;;;;;;5140164;27;20031;-62
2023/07/26 01:43:48;;;;;;;12.10;4.40;;;;;;;;;;5140783;27;20026;-64
2023/07/26 01:46:13;;;;;;;11.47;4.27;;;;;;;;;;5143059;27;20027;-64
2023/07/26 01:48:39;;;;;;;12.13;5.00;;;;;;;;;;5133419;27;20456;-64
2023/07/26 01:51:04;;;;;;;10.68;4.35;;;;;;;;;;5145373;27;20439;-64
2023/07/26 01:53:29;;;;;;;11.57;3.93;;;;;;;;;;5139640;27;20084;-64
2023/07/26 01:55:54;;;;;;;8.43;4.40;;;;;;;;;;5135910;27;20030;-64
2023/07/26 01:58:20;;;;;;;10.95;4.43;;;;;;;;;;5138140;27;20457;-64
2023/07/26 02:00:45;;;;;;;12.45;4.45;;;;;;;;;;5133402;27;20479;-63
2023/07/26 02:03:10;;;;;;;9.50;3.75;;;;;;;;;;5143765;27;20022;-64
2023/07/26 02:05:41;;;;;;;10.60;3.83;;;;;;;;;;5135183;27;20023;-64
2023/07/26 02:08:06;;;;;;;13.68;4.03;;;;;;;;;;5140586;27;20059;-63
2023/07/26 02:10:31;;;;;;;12.83;4.33;;;;;;;;;;5137698;27;20043;-63
2023/07/26 02:12:56;;;;;;;9.43;3.83;;;;;;;;;;5123204;27;20259;-63
2023/07/26 02:15:22;;;;;;;9.70;4.13;;;;;;;;;;5136952;27;20034;-63
2023/07/26 02:17:47;;;;;;;10.37;3.57;;;;;;;;;;5136161;27;20087;-63
2023/07/26 02:20:12;;;;;;;11.17;4.00;;;;;;;;;;5120793;27;20023;-62
2023/07/26 02:22:37;;;;;;;12.40;4.13;;;;;;;;;;5127261;27;20046;-62
2023/07/26 02:25:02;;;;;;;10.33;3.90;;;;;;;;;;5134791;27;20042;-63
2023/07/26 02:27:28;;;;;;;10.25;3.45;;;;;;;;;;5144698;27;20018;-64
2023/07/26 02:29:53;;;;;;;12.47;3.57;;;;;;;;;;5141368;27;20019;-63
2023/07/26 02:32:18;;;;;;;10.23;3.80;;;;;;;;;;5132537;27;20033;-62
2023/07/26 02:34:43;;;;;;;12.03;4.00;;;;;;;;;;5135012;27;21685;-62
2023/07/26 02:37:08;;;;;;;10.57;3.83;;;;;;;;;;5129997;27;20051;-64
2023/07/26 02:39:33;;;;;;;9.57;3.80;;;;;;;;;;5140379;27;20432;-64
2023/07/26 02:41:59;;;;;;;8.90;4.33;;;;;;;;;;5144609;27;20436;-63
2023/07/26 02:44:24;;;;;;;11.63;4.33;;;;;;;;;;5136169;27;20027;-62
2023/07/26 02:46:49;;;;;;;11.38;3.75;;;;;;;;;;5142078;27;20023;-63
2023/07/26 02:49:14;;;;;;;11.77;3.97;;;;;;;;;;5127566;27;20535;-64
2023/07/26 02:51:39;;;;;;;8.37;3.80;;;;;;;;;;5122420;27;20028;-64
2023/07/26 02:54:04;;;;;;;9.60;3.70;;;;;;;;;;5130088;27;20031;-62
2023/07/26 02:56:30;;;;;;;10.13;3.47;;;;;;;;;;5134368;27;20075;-63
2023/07/26 02:58:55;;;;;;;11.13;4.03;;;;;;;;;;5139818;27;20019;-63
2023/07/26 03:01:20;;;;;;;9.10;4.20;;;;;;;;;;5134524;27;20106;-64
2023/07/26 03:03:45;;;;;;;13.80;4.27;;;;;;;;;;5128001;27;20543;-63
2023/07/26 03:06:11;;;;;;;11.13;4.17;;;;;;;;;;5134209;27;20015;-63
2023/07/26 03:08:36;;;;;;;9.77;3.70;;;;;;;;;;5135207;27;20073;-61
2023/07/26 03:11:01;;;;;;;11.50;3.17;;;;;;;;;;5145341;27;20027;-63
2023/07/26 03:13:27;;;;;;;10.00;3.63;;;;;;;;;;5137495;27;20560;-62
2023/07/26 03:15:53;;;;;;;8.70;3.80;;;;;;;;;;5134024;27;20054;-63
2023/07/26 03:18:18;;;;;;;12.05;3.67;;;;;;;;;;5129905;27;20019;-62
2023/07/26 03:20:45;;;;;;;9.27;3.60;;;;;;;;;;5145298;27;20027;-63
2023/07/26 03:23:10;;;;;;;9.40;3.40;;;;;;;;;;5121890;27;20933;-63
2023/07/26 03:25:35;;;;;;;12.47;3.40;;;;;;;;;;5134505;27;20079;-63
2023/07/26 03:28:00;;;;;;;11.43;3.58;;;;;;;;;;5134613;27;20019;-62
2023/07/26 03:30:25;;;;;;;11.60;4.03;;;;;;;;;;5133570;27;20011;-63
2023/07/26 03:32:50;;;;;;;6.70;3.27;;;;;;;;;;5131685;27;20026;-64
2023/07/26 03:35:15;;;;;;;12.13;3.30;;;;;;;;;;5140363;27;20102;-62
2023/07/26 03:37:41;;;;;;;8.90;2.90;;;;;;;;;;5137149;27;20105;-62
2023/07/26 03:40:06;;;;;;;9.40;3.20;;;;;;;;;;5132097;27;20474;-62
2023/07/26 03:42:31;;;;;;;12.63;3.10;;;;;;;;;;5135951;27;20397;-63
2023/07/26 03:44:56;;;;;;;9.13;2.90;;;;;;;;;;5142132;27;20030;-62
2023/07/26 03:47:22;;;;;;;11.40;3.15;;;;;;;;;;5129418;27;20352;-61
2023/07/26 03:49:47;;;;;;;12.65;4.20;;;;;;;;;;5127062;27;20028;-61
2023/07/26 03:52:12;;;;;;;7.60;3.08;;;;;;;;;;5137873;27;20035;-63
2023/07/26 03:54:37;;;;;;;8.88;3.40;;;;;;;;;;5128276;27;20027;-63
2023/07/26 03:57:02;;;;;;;9.95;3.70;;;;;;;;;;5133387;27;20083;-64
2023/07/26 03:59:28;;;;;;;9.27;2.93;;;;;;;;;;5132457;27;20483;-62
2023/07/26 04:01:53;;;;;;;10.07;3.40;;;;;;;;;;5129342;27;20072;-64
2023/07/26 04:04:18;;;;;;;9.33;3.20;;;;;;;;;;5133225;27;20569;-63
2023/07/26 04:06:43;;;;;;;8.27;3.73;;;;;;;;;;5134241;27;20033;-62
2023/07/26 04:09:08;;;;;;;6.37;2.87;;;;;;;;;;5128186;27;20019;-62
2023/07/26 04:11:33;;;;;;;11.87;3.10;;;;;;;;;;5127035;27;20390;-63
2023/07/26 04:13:58;;;;;;;14.52;3.15;;;;;;;;;;5135374;27;20024;-63
2023/07/26 04:16:24;;;;;;;9.30;3.03;;;;;;;;;;5136466;27;20510;-63
2023/07/26 04:18:49;;;;;;;8.73;2.93;;;;;;;;;;5135983;27;20026;-63
2023/07/26 04:21:15;;;;;;;8.53;2.67;;;;;;;;;;5139062;27;20027;-64
2023/07/26 04:23:41;;;;;;;10.73;3.60;;;;;;;;;;5129316;27;20019;-63
2023/07/26 04:26:06;;;;;;;8.50;2.53;;;;;;;;;;5137347;27;20477;-63
2023/07/26 04:28:31;;;;;;;8.43;2.80;;;;;;;;;;5135402;27;20063;-63
2023/07/26 04:30:56;;;;;;;13.23;3.40;;;;;;;;;;5122643;27;20043;-62
2023/07/26 04:33:22;;;;;;;7.38;2.92;;;;;;;;;;5121703;27;20043;-63
2023/07/26 04:35:47;;;;;;;11.30;2.50;;;;;;;;;;5118169;27;20409;-63
2023/07/26 04:38:12;;;;;;;11.30;2.80;;;;;;;;;;5127968;27;20076;-61
2023/07/26 04:40:38;;;;;;;13.73;2.60;;;;;;;;;;5129617;27;20012;-63
2023/07/26 04:43:03;;;;;;;9.00;2.20;;;;;;;;;;5135192;27;20046;-62
2023/07/26 04:45:29;;;;;;;7.93;2.35;;;;;;;;;;5138702;27;20027;-62
2023/07/26 04:47:54;;;;;;;10.38;2.63;;;;;;;;;;5123990;27;20059;-61
2023/07/26 04:50:19;;;;;;;9.03;2.57;;;;;;;;;;5123405;27;20103;-63
2023/07/26 04:52:44;;;;;;;7.57;2.20;;;;;;;;;;5121984;27;20375;-63
2023/07/26 04:55:09;;;;;;;10.55;2.63;;;;;;;;;;5119379;27;20042;-62
2023/07/26 04:57:37;;;;;;;7.37;2.40;;;;;;;;;;5114663;27;20030;-61
2023/07/26 05:00:02;;;;;;;10.10;2.30;;;;;;;;;;5113563;27;20791;-62
2023/07/26 05:02:27;;;;;;;10.07;2.47;;;;;;;;;;5135160;27;20106;-62
2023/07/26 05:04:53;;;;;;;12.38;2.10;;;;;;;;;;5125899;27;20490;-64
2023/07/26 05:07:18;;;;;;;9.57;2.20;;;;;;;;;;5139387;27;20027;-64
2023/07/26 05:09:44;;;;;;;11.03;2.20;;;;;;;;;;5132771;27;20105;-64
2023/07/26 05:12:09;;;;;;;11.50;2.15;;;;;;;;;;5121919;27;20527;-65
2023/07/26 05:14:34;;;;;;;8.70;2.10;;;;;;;;;;5114890;27;20019;-62
2023/07/26 05:16:59;;;;;;;5.90;2.33;;;;;;;;;;5121689;27;20079;-63
2023/07/26 05:19:25;;;;;;;12.77;2.17;;;;;;;;;;5127280;27;20049;-60
2023/07/26 05:21:50;;;;;;;8.63;2.33;;;;;;;;;;5126981;27;20026;-62
2023/07/26 05:24:15;;;;;;;8.80;1.60;;;;;;;;;;5116179;27;20027;-61
2023/07/26 05:26:40;;;;;;;11.27;2.50;;;;;;;;;;5110293;27;20084;-62
2023/07/26 05:29:05;;;;;;;8.30;2.10;;;;;;;;;;5118642;27;20019;-61
2023/07/26 05:31:30;;;;;;;7.80;2.03;;;;;;;;;;5123017;27;20023;-63
2023/07/26 05:33:55;;;;;;;7.05;1.77;;;;;;;;;;5123604;27;20390;-63
2023/07/26 05:36:21;;;;;;;7.23;2.17;;;;;;;;;;5118552;27;20019;-62
2023/07/26 05:38:46;;;;;;;7.57;2.00;;;;;;;;;;5120203;27;20033;-62
2023/07/26 05:41:11;;;;;;;7.72;2.03;;;;;;;;;;5118153;27;20031;-61
2023/07/26 05:43:36;;;;;;;7.68;1.77;;;;;;;;;;5117350;27;20027;-61
2023/07/26 05:46:04;;;;;;;10.30;1.93;;;;;;;;;;5132145;27;20094;-63
2023/07/26 05:48:29;;;;;;;10.00;2.05;;;;;;;;;;5137953;27;20065;-61
2023/07/26 05:50:55;;;;;;;9.00;2.30;;;;;;;;;;5127799;27;20054;-62
2023/07/26 05:53:20;;;;;;;11.05;1.98;;;;;;;;;;5133063;27;20020;-63
2023/07/26 05:55:45;;;;;;;8.67;1.83;;;;;;;;;;5127775;27;20402;-60
2023/07/26 05:58:11;;;;;;;8.75;1.63;;;;;;;;;;5122565;27;20012;-62
2023/07/26 06:00:36;;;;;;;5.83;1.70;;;;;;;;;;5125478;27;20073;-61
2023/07/26 06:03:01;;;;;;;6.60;1.77;;;;;;;;;;5141432;27;20038;-61
2023/07/26 06:05:27;;;;;;;8.07;2.05;;;;;;;;;;5139355;27;20546;-61
2023/07/26 06:07:52;;;;;;;11.50;1.73;;;;;;;;;;5133128;27;20021;-61
2023/07/26 06:10:17;;;;;;;9.10;1.90;;;;;;;;;;5130891;27;20023;-62
2023/07/26 06:12:42;;;;;;;7.17;1.43;;;;;;;;;;5130160;27;20039;-62
2023/07/26 06:15:07;;;;;;;6.40;1.63;;;;;;;;;;5122921;27;20025;-61
2023/07/26 06:17:33;;;;;;;10.77;2.10;;;;;;;;;;5137706;27;20431;-61
2023/07/26 06:19:58;;;;;;;12.48;1.85;;;;;;;;;;5130623;27;20102;-63
2023/07/26 06:22:23;;;;;;;10.33;2.00;;;;;;;;;;5135497;27;20022;-60
2023/07/26 06:24:48;;;;;;;6.43;1.77;;;;;;;;;;5135672;27;20086;-61
2023/07/26 06:27:19;;;;;;;7.25;1.75;;;;;;;;;;5127997;27;20121;-59
2023/07/26 06:29:44;;;;;;;7.15;1.85;;;;;;;;;;5138223;27;20507;-61
2023/07/26 06:32:09;;;;;;;8.13;1.77;;;;;;;;;;5141331;27;20022;-63
2023/07/26 06:34:34;;;;;;;8.67;1.97;;;;;;;;;;5138729;27;20027;-63
2023/07/26 06:37:00;;;;;;;7.67;1.60;;;;;;;;;;5126113;27;20034;-62
2023/07/26 06:39:26;;;;;;;9.57;2.27;;;;;;;;;;5142670;27;20039;-62
2023/07/26 06:41:51;;;;;;;7.15;1.70;;;;;;;;;;5151159;27;20367;-63
2023/07/26 06:44:16;;;;;;;8.87;1.60;;;;;;;;;;5148404;27;20056;-59
2023/07/26 06:46:42;;;;;;;8.53;1.50;;;;;;;;;;5133789;27;20143;-62
2023/07/26 06:49:07;;;;;;;11.52;1.70;;;;;;;;;;5130973;27;20031;-62
2023/07/26 06:51:32;;;;;;;10.13;1.63;;;;;;;;;;5124188;27;20446;-62
2023/07/26 06:53:57;;;;;;;8.03;1.90;;;;;;;;;;5138095;27;20102;-62
2023/07/26 06:56:22;;;;;;;11.43;1.60;;;;;;;;;;5134841;27;20082;-62
2023/07/26 06:58:47;;;;;;;7.65;1.73;;;;;;;;;;5146046;27;20030;-63
2023/07/26 07:01:17;;;;;;;6.75;1.40;;;;;;;;;;5122374;27;20500;-59
2023/07/26 07:03:42;;;;;;;10.57;1.55;;;;;;;;;;5137241;27;20443;-62
2023/07/26 07:06:07;;;;;;;6.23;1.57;;;;;;;;;;5136735;27;20015;-62
2023/07/26 07:08:32;;;;;;;8.53;1.90;;;;;;;;;;5112586;28;20083;-62
2023/07/26 07:10:58;;;;;;;7.20;1.70;;;;;;;;;;5112788;28;20027;-61
2023/07/26 07:13:23;;;;;;;9.45;1.85;;;;;;;;;;5112161;28;20059;-61
2023/07/26 07:15:48;;;;;;;5.97;1.48;;;;;;;;;;5112714;28;20027;-61
2023/07/26 07:18:14;;;;;;;7.80;1.57;;;;;;;;;;5112430;28;20103;-62
2023/07/26 07:20:39;;;;;;;6.45;1.75;;;;;;;;;;5112487;28;20023;-63
2023/07/26 07:23:04;;;;;;;7.00;1.83;;;;;;;;;;5111497;28;20555;-64
2023/07/26 07:25:29;;;;;;;7.00;1.30;;;;;;;;;;5112577;28;20026;-63
2023/07/26 07:27:55;;;;;;;7.38;1.63;;;;;;;;;;5112307;28;20023;-61
2023/07/26 07:30:20;;;;;;;8.07;1.33;;;;;;;;;;5112448;28;20014;-63
2023/07/26 07:32:45;;;;;;;7.50;1.35;;;;;;;;;;5111291;28;20416;-61
2023/07/26 07:35:11;;;;;;;7.80;1.60;;;;;;;;;;5118905;27;20058;-61
2023/07/26 07:37:36;;;;;;;12.75;1.77;;;;;;;;;;5132960;27;20031;-62
2023/07/26 07:40:07;;;;;;;5.67;1.67;;;;;;;;;;5132759;27;20019;-63
2023/07/26 07:42:32;;;;;;;8.15;1.40;;;;;;;;;;5132634;27;20200;-63
2023/07/26 07:44:57;;;;;;;7.83;1.37;;;;;;;;;;5151144;27;20040;-61
2023/07/26 07:47:23;;;;;;;5.03;1.40;;;;;;;;;;5153515;27;20471;-61
2023/07/26 07:49:48;;;;;;;4.63;1.40;;;;;;;;;;5134767;27;20026;-62
2023/07/26 07:52:13;;;;;;;6.20;1.67;;;;;;;;;;5112310;27;20023;-61
2023/07/26 07:54:38;;;;;;;8.27;1.58;;;;;;;;;;5110938;28;20020;-61
2023/07/26 07:57:04;;;;;;;6.23;1.53;;;;;;;;;;5111939;28;20019;-61
2023/07/26 07:59:29;;;;;;;5.57;1.27;;;;;;;;;;5111953;28;20126;-61
2023/07/26 08:01:54;;;;;;;5.43;1.40;;;;;;;;;;5111888;28;20022;-61
2023/07/26 08:04:20;;;;;;;5.65;1.40;;;;;;;;;;5114702;27;20015;-63
2023/07/26 08:06:46;;;;;;;4.82;1.38;;;;;;;;;;5132344;27;20024;-62
2023/07/26 08:09:11;;;;;;;4.80;1.20;;;;;;;;;;5132383;27;20011;-62
2023/07/26 08:11:36;;;;;;;4.83;1.30;;;;;;;;;;5132142;27;20424;-60
2023/07/26 08:14:02;;;;;;;5.47;1.30;;;;;;;;;;5131402;27;20037;-63
2023/07/26 08:16:27;;;;;;;5.93;1.52;;;;;;;;;;5124784;27;20475;-62
2023/07/26 08:18:52;;;;;;;7.43;1.40;;;;;;;;;;5111656;28;20051;-63
2023/07/26 08:21:17;;;;;;;4.60;1.30;;;;;;;;;;5111318;28;20046;-61
2023/07/26 08:23:43;;;;;;;3.20;1.23;;;;;;;;;;5111004;28;20019;-63
2023/07/26 08:26:09;;;;;;;4.90;1.27;;;;;;;;;;5111439;28;20027;-63
2023/07/26 08:28:34;;;;;;;5.90;1.27;;;;;;;;;;5111139;28;20047;-61
2023/07/26 08:30:59;;;;;;;8.73;1.23;;;;;;;;;;5111394;28;20491;-62
2023/07/26 08:33:25;;;;;;;4.40;1.20;;;;;;;;;;5109324;27;20034;-62
2023/07/26 08:35:50;;;;;;;5.40;1.60;;;;;;;;;;5111245;28;20083;-62
2023/07/26 08:38:15;;;;;;;5.47;1.20;;;;;;;;;;5111117;28;20072;-62
2023/07/26 08:40:48;;;;;;;5.17;1.30;;;;;;;;;;5111304;28;20023;-62
2023/07/26 08:43:14;;;;;;;5.07;1.42;;;;;;;;;;5110424;28;20027;-62
2023/07/26 08:45:43;;;;;;;5.95;1.40;;;;;;;;;;5111375;28;20051;-62
2023/07/26 08:48:09;;;;;;;4.50;1.30;;;;;;;;;;5111246;28;20524;-62
2023/07/26 08:50:35;;;;;;;5.53;1.48;;;;;;;;;;5111075;28;20020;-62
2023/07/26 08:53:03;;;;;;;4.80;1.40;;;;;;;;;;5110677;28;20022;-61
2023/07/26 08:55:28;;;;;;;5.63;1.30;;;;;;;;;;5111101;28;20414;-62
2023/07/26 08:57:54;;;;;;;5.20;1.50;;;;;;;;;;5111221;28;20018;-62
2023/07/26 09:00:19;;;;;;;4.00;1.17;;;;;;;;;;5110405;28;20019;-62
2023/07/26 09:02:46;;;;;;;6.73;1.40;;;;;;;;;;5109997;27;20074;-61
2023/07/26 09:05:12;;;;;;;5.25;1.42;;;;;;;;;;5121022;28;20072;-61
2023/07/26 09:07:37;;;;;;;5.90;1.50;;;;;;;;;;5131555;27;20027;-63
2023/07/26 09:10:02;;;;;;;4.10;1.27;;;;;;;;;;5131781;27;20023;-63
2023/07/26 09:12:28;;;;;;;4.87;1.10;;;;;;;;;;5129107;27;20494;-61
2023/07/26 09:14:55;;;;;;;4.80;1.27;;;;;;;;;;5130661;27;20027;-63
2023/07/26 09:17:20;;;;;;;4.57;1.33;;;;;;;;;;5131987;27;20351;-61
2023/07/26 09:19:49;;;;;;;3.40;1.10;;;;;;;;;;5134777;27;20063;-62
2023/07/26 09:22:14;;;;;;;4.03;1.40;;;;;;;;;;5135955;27;20087;-63
2023/07/26 09:24:40;;;;;;;6.33;1.60;;;;;;;;;;5142914;27;20078;-62
2023/07/26 09:27:06;;;;;;;;;;;;;;;;;;5157871;27;20015;-62
2023/07/26 09:29:32;;;;;;;3.67;1.20;;;;;;;;;;5124454;27;19922;-63
2023/07/26 09:31:57;;;;;;;4.45;1.27;;;;;;;;;;5119605;27;20421;-63
2023/07/26 09:34:22;;;;;;;7.80;1.33;;;;;;;;;;5127699;27;20007;-62
2023/07/26 09:36:51;;;;;;;4.90;1.30;;;;;;;;;;5135032;27;20474;-62
2023/07/26 09:39:26;;;;;;;3.92;1.30;;;;;;;;;;5135153;27;20030;-62
2023/07/26 09:42:05;;;;;;;5.45;1.20;;;;;;;;;;5135200;27;20461;-62
2023/07/26 09:44:31;;;;;;;4.78;1.15;;;;;;;;;;5134342;27;20550;-63
2023/07/26 09:46:56;;;;;;;5.60;1.45;;;;;;;;;;5134832;27;20106;-62
2023/07/26 09:49:22;;;;;;;4.82;1.10;;;;;;;;;;5122990;27;20046;-62
2023/07/26 09:51:48;;;;;;;4.20;1.13;;;;;;;;;;5114032;28;20031;-61
2023/07/26 09:54:14;;;;;;;4.20;1.10;;;;;;;;;;5112925;27;20036;-60
2023/07/26 09:56:40;;;;;;;4.55;1.10;;;;;;;;;;5113825;27;20050;-61
2023/07/26 09:59:09;;;;;;;4.75;1.27;;;;;;;;;;5113794;27;20024;-62
2023/07/26 10:01:38;;;;;;;4.47;1.30;;;;;;;;;;5117791;27;20019;-62
2023/07/26 10:04:04;;;;;;;3.55;1.00;;;;;;;;;;5126889;27;20023;-61
2023/07/26 10:06:32;;;;;;;4.03;1.02;;;;;;;;;;5113592;27;20019;-62
2023/07/26 10:08:57;;;;;;;3.75;1.10;;;;;;;;;;5114143;28;20011;-63
2023/07/26 10:11:23;;;;;;;3.83;1.30;;;;;;;;;;5113808;27;20543;-61
2023/07/26 10:13:49;;;;;;;3.72;1.15;;;;;;;;;;5112949;28;20039;-62
2023/07/26 10:16:14;;;;;;;4.00;1.20;;;;;;;;;;5113674;28;20516;-62
2023/07/26 10:18:41;;;;;;;4.30;1.67;;;;;;;;;;5113347;27;20027;-61
2023/07/26 10:21:07;;;;;;;5.60;1.73;;;;;;;;;;5113616;28;20486;-61
2023/07/26 10:23:32;;;;;;;3.92;1.80;;;;;;;;;;5113024;28;20479;-61
2023/07/26 10:26:00;;;;;;;5.50;2.20;;;;;;;;;;5113213;28;20030;-62
2023/07/26 10:28:26;;;;;;;6.15;1.80;;;;;;;;;;5112977;27;20031;-62
2023/07/26 10:30:52;;;;;;;6.10;2.55;;;;;;;;;;5112367;28;20487;-62
2023/07/26 10:33:17;;;;;;;5.72;2.22;;;;;;;;;;5112702;28;20031;-62
2023/07/26 10:35:42;;;;;;;3.72;2.10;;;;;;;;;;5113490;27;20038;-61
2023/07/26 10:38:08;;;;;;;4.53;1.85;;;;;;;;;;5113399;28;20016;-63
2023/07/26 10:40:37;;;;;;;2.70;1.20;;;;;;;;;;5113134;28;20068;-61
2023/07/26 10:43:17;;;;;;;4.93;1.60;;;;;;;;;;5112970;28;20027;-60
2023/07/26 10:45:45;;;;;;;5.00;1.63;;;;;;;;;;5113474;28;20046;-63
2023/07/26 10:48:22;;;;;;;4.63;1.70;;;;;;;;;;5113187;28;20364;-61
2023/07/26 10:50:48;;;;;;;4.90;1.70;;;;;;;;;;5112279;27;20103;-62
2023/07/26 10:53:30;;;;;;;3.87;1.50;;;;;;;;;;5112183;27;20111;-60
2023/07/26 10:56:05;;;;;;;4.38;1.20;;;;;;;;;;5112989;28;20094;-63
2023/07/26 10:58:30;;;;;;;4.38;1.20;;;;;;;;;;5113153;28;20051;-62
2023/07/26 11:00:59;;;;;;;4.68;1.20;;;;;;;;;;5122364;27;20099;-62
2023/07/26 11:03:25;;;;;;;4.32;1.20;;;;;;;;;;5132800;27;20118;-62
2023/07/26 11:05:55;;;;;;;4.97;1.15;;;;;;;;;;5133062;27;20046;-61
2023/07/26 11:08:20;;;;;;;3.90;1.20;;;;;;;;;;5133521;27;20094;-62
2023/07/26 11:10:49;;;;;;;5.37;1.10;;;;;;;;;;5133572;27;20543;-63
2023/07/26 11:13:18;;;;;;;3.60;1.33;;;;;;;;;;5132746;27;20157;-62
2023/07/26 11:15:44;;;;;;;3.30;1.02;;;;;;;;;;5133245;27;20023;-62
2023/07/26 11:18:10;;;;;;;4.80;1.00;;;;;;;;;;5133005;27;20027;-63
2023/07/26 11:20:39;;;;;;;3.22;1.20;;;;;;;;;;5133189;27;20039;-62
2023/07/26 11:23:24;;;;;;;4.07;1.20;;;;;;;;;;5132635;27;20026;-62
2023/07/26 11:25:50;;;;;;;5.07;1.25;;;;;;;;;;5132923;27;20043;-60
2023/07/26 11:28:15;;;;;;;4.40;1.17;;;;;;;;;;5132730;27;20018;-61
2023/07/26 11:30:58;;;;;;;3.53;1.17;;;;;;;;;;5132891;27;20011;-62
2023/07/26 11:33:23;;;;;;;;;;;;;;;;;;5132697;27;20109;-62
2023/07/26 11:35:49;;;;;;;2.88;1.05;;;;;;;;;;5132848;27;19903;-62
2023/07/26 11:38:14;;;;;;;3.83;1.20;;;;;;;;;;5132683;27;20031;-64
2023/07/26 11:40:40;;;;;;;3.13;1.10;;;;;;;;;;5132765;27;20035;-61
2023/07/26 11:43:06;;;;;;;4.90;1.02;;;;;;;;;;5131492;27;20593;-61
2023/07/26 11:45:32;;;;;;;4.20;1.20;;;;;;;;;;5121441;27;20015;-63
2023/07/26 11:47:57;;;;;;;3.17;1.27;;;;;;;;;;5111835;28;20477;-63
2023/07/26 11:50:22;;;;;;;4.30;1.20;;;;;;;;;;5112004;28;20066;-63
2023/07/26 11:53:02;;;;;;;6.07;1.13;;;;;;;;;;5109977;28;20030;-63
2023/07/26 11:55:27;;;;;;;3.60;1.05;;;;;;;;;;5110334;27;20094;-62
2023/07/26 11:57:52;;;;;;;3.80;1.20;;;;;;;;;;5112200;27;20098;-62
2023/07/26 12:00:17;;;;;;;3.85;1.20;;;;;;;;;;5128032;27;20072;-62
2023/07/26 12:02:42;;;;;;;3.70;1.10;;;;;;;;;;5131852;27;20482;-62
2023/07/26 12:05:14;;;;;;;3.23;1.00;;;;;;;;;;5131959;27;20023;-62
2023/07/26 12:07:43;;;;;;;3.00;1.10;;;;;;;;;;5132177;27;20025;-62
2023/07/26 12:10:09;;;;;;;2.85;0.88;;;;;;;;;;5115359;27;20088;-62
2023/07/26 12:12:34;;;;;;;;;;;;;;;;;;5111731;28;20023;-62
2023/07/26 12:15:02;;;;;;;3.25;1.00;;;;;;;;;;5111035;28;19903;-61
2023/07/26 12:17:27;;;;;;;3.45;1.05;;;;;;;;;;5111807;28;20125;-61
2023/07/26 12:20:01;;;;;;;4.68;1.10;;;;;;;;;;5111410;28;20115;-61
2023/07/26 12:22:26;;;;;;;4.15;1.00;;;;;;;;;;5109806;28;20050;-61
2023/07/26 12:24:53;;;;;;;2.85;1.10;;;;;;;;;;5110771;28;20667;-61
2023/07/26 12:27:18;;;;;;;3.10;1.10;;;;;;;;;;5111206;28;20019;-61
2023/07/26 12:29:43;;;;;;;5.70;1.00;;;;;;;;;;5111415;28;20102;-61
2023/07/26 12:32:13;;;;;;;3.25;1.02;;;;;;;;;;5111203;28;20032;-61
2023/07/26 12:34:42;;;;;;;3.17;1.00;;;;;;;;;;5110745;28;20023;-61
2023/07/26 12:37:07;;;;;;;2.38;1.00;;;;;;;;;;5110981;28;20024;-61
2023/07/26 12:39:32;;;;;;;3.83;1.10;;;;;;;;;;5109857;28;20506;-61
2023/07/26 12:41:58;;;;;;;5.43;1.10;;;;;;;;;;5109785;27;20012;-61
2023/07/26 12:44:26;;;;;;;3.30;1.00;;;;;;;;;;5110825;28;20051;-61
2023/07/26 12:46:51;;;;;;;3.28;0.85;;;;;;;;;;5110982;28;20015;-61
2023/07/26 12:49:18;;;;;;;2.67;0.97;;;;;;;;;;5111095;28;20118;-60
2023/07/26 12:51:43;;;;;;;2.25;0.80;;;;;;;;;;5111085;28;20058;-60
2023/07/26 12:54:08;;;;;;;2.67;0.90;;;;;;;;;;5111778;28;20412;-61
2023/07/26 12:56:33;;;;;;;4.30;0.90;;;;;;;;;;5115584;28;20102;-60
2023/07/26 12:58:59;;;;;;;4.30;1.00;;;;;;;;;;5130816;27;20046;-58
2023/07/26 13:01:24;;;;;;;3.60;1.10;;;;;;;;;;5116921;27;20035;-60
2023/07/26 13:03:49;;;;;;;4.25;0.95;;;;;;;;;;5116733;27;20052;-61
2023/07/26 13:06:14;;;;;;;4.00;1.10;;;;;;;;;;5116977;28;20020;-61
2023/07/26 13:08:39;;;;;;;3.50;1.10;;;;;;;;;;5122776;27;20019;-60
2023/07/26 13:11:05;;;;;;;3.50;0.82;;;;;;;;;;5122753;27;20019;-60
2023/07/26 13:13:30;;;;;;;3.63;1.03;;;;;;;;;;5116819;28;20030;-61
2023/07/26 13:15:55;;;;;;;4.30;1.10;;;;;;;;;;5116073;27;20457;-61
2023/07/26 13:18:20;;;;;;;3.60;1.23;;;;;;;;;;5115497;28;20015;-61
2023/07/26 13:20:46;;;;;;;4.10;1.00;;;;;;;;;;5115482;28;20428;-61
2023/07/26 13:23:12;;;;;;;3.50;1.07;;;;;;;;;;5114939;28;20391;-60
2023/07/26 13:25:37;;;;;;;3.30;1.00;;;;;;;;;;5114695;27;20042;-61
2023/07/26 13:28:03;;;;;;;4.50;0.90;;;;;;;;;;5115549;27;20491;-62
2023/07/26 13:30:28;;;;;;;4.57;1.20;;;;;;;;;;5114783;28;20124;-62
2023/07/26 13:32:53;;;;;;;6.03;1.60;;;;;;;;;;5113864;28;20484;-61
2023/07/26 13:35:18;;;;;;;9.27;1.63;;;;;;;;;;5114847;28;20104;-64
2023/07/26 13:37:44;;;;;;;5.77;1.67;;;;;;;;;;5114565;28;20428;-62
2023/07/26 13:40:09;;;;;;;4.30;1.80;;;;;;;;;;5114364;28;20459;-62
2023/07/26 13:42:34;;;;;;;4.50;1.67;;;;;;;;;;5112648;28;20470;-61
2023/07/26 13:45:01;;;;;;;4.27;1.63;;;;;;;;;;5113985;28;20426;-60
2023/07/26 13:47:26;;;;;;;4.20;1.70;;;;;;;;;;5114016;28;20028;-62
2023/07/26 13:49:51;;;;;;;5.17;1.97;;;;;;;;;;5114329;28;20389;-60
2023/07/26 13:52:16;;;;;;;5.97;2.15;;;;;;;;;;5113859;28;21064;-62
2023/07/26 13:54:42;;;;;;;5.87;1.80;;;;;;;;;;5113769;28;20024;-63
2023/07/26 13:57:08;;;;;;;3.73;1.30;;;;;;;;;;5119808;27;20362;-63
2023/07/26 13:59:33;;;;;;;;;;;;;;;;;;5122649;27;20474;-63
2023/07/26 14:01:58;;;;;;;7.45;1.70;;;;;;;;;;5113996;28;20380;-63
2023/07/26 14:04:23;;;;;;;4.07;1.63;;;;;;;;;;5113106;28;20035;-64
2023/07/26 14:06:49;;;;;;;3.33;1.40;;;;;;;;;;5113934;28;20659;-63
2023/07/26 14:09:14;;;;;;;5.23;1.40;;;;;;;;;;5113894;28;20024;-62
2023/07/26 14:11:39;;;;;;;5.97;1.77;;;;;;;;;;5114081;28;20030;-62
2023/07/26 14:14:04;;;;;;;5.37;1.47;;;;;;;;;;5113317;28;20024;-62
2023/07/26 14:16:29;;;;;;;3.20;1.20;;;;;;;;;;5112463;28;20466;-63
2023/07/26 14:18:55;;;;;;;5.30;1.27;;;;;;;;;;5113882;27;20026;-63
2023/07/26 14:21:20;;;;;;;4.90;1.27;;;;;;;;;;5113609;28;20049;-63
2023/07/26 14:23:45;;;;;;;3.53;1.30;;;;;;;;;;5113355;28;20662;-63
2023/07/26 14:26:10;;;;;;;4.10;1.00;;;;;;;;;;5114089;28;20016;-61
2023/07/26 14:28:35;;;;;;;2.33;0.87;;;;;;;;;;5113839;28;20452;-62
2023/07/26 14:31:00;;;;;;;4.45;1.08;;;;;;;;;;5113800;28;20023;-62
2023/07/26 14:33:26;;;;;;;1.97;0.57;;;;;;;;;;5113018;28;20038;-62